KIAB/IAB METAR and TAF weather

Enter ICAO airport designator
Station Type Date Time Source
KIAB METAR 2021/07/30 06:56 UTC NOAA

KIAB 300656Z AUTO 22009KT 10SM CLR 26/21 A3007 RMK AO2 SLP169 T02570209 TSNO $


Station Type Date Time Source
KIAB Decoded METAR 2021/07/30 06:56 UTC NOAA

McConnell Air Force Base, KS, United States (KIAB) 37-37N 097-16W
Jul 30, 2021 - 02:56 AM EDT / 2021.07.30 0656 UTC
Wind: from the SW (220 degrees) at 10 MPH (9 KT):0
Visibility: 10 mile(s):0
Sky conditions: clear
Temperature: 78.3 F (25.7 C)
Dew Point: 69.6 F (20.9 C)
Relative Humidity: 74%
Pressure (altimeter): 30.07 in. Hg (1018 hPa)
ob: KIAB 300656Z AUTO 22009KT 10SM CLR 26/21 A3007 RMK AO2 SLP169 T02570209 TSNO
cycle: 7

Station Type Date Time Source
KIAB TAF 2021/07/30 02:24 UTC NOAA

TAF KIAB 300200Z 3002/3108 17009KT 9999 SKC QNH2999INS
BECMG 3017/3018 19012KT 9999 FEW060 QNH2993INS
BECMG 3105/3106 18010G20KT 9999 SKC QNH2995INS TX37/3021Z TN24/3011Z

Example: see airport list